createdAt,value
2019-02-02T00:01:02.603Z,98167.80
2019-02-02T00:03:30.906Z,98167.23
2019-02-02T00:05:59.036Z,98167.54
2019-02-02T00:08:27.254Z,98169.66
2019-02-02T00:10:55.297Z,98172.73
2019-02-02T00:13:23.614Z,98166.38
2019-02-02T00:15:51.832Z,98174.39
2019-02-02T00:18:20.026Z,98169.14
2019-02-02T00:20:48.106Z,98164.13
2019-02-02T00:23:16.106Z,98164.64
2019-02-02T00:25:44.247Z,98163.89
2019-02-02T00:28:12.429Z,98162.63
2019-02-02T00:30:40.513Z,98162.20
2019-02-02T00:33:08.619Z,98168.28
2019-02-02T00:35:36.845Z,98164.27
2019-02-02T00:38:04.990Z,98164.23
2019-02-02T00:40:33.227Z,98162.17
2019-02-02T00:43:01.387Z,98165.17
2019-02-02T00:45:29.592Z,98174.42
2019-02-02T00:47:57.685Z,98181.79
2019-02-02T00:50:25.758Z,98184.04
2019-02-02T00:52:53.846Z,98184.39
2019-02-02T00:55:21.938Z,98187.37
2019-02-02T00:57:54.042Z,98192.72
2019-02-02T01:00:20.032Z,98192.72
2019-02-02T01:02:47.998Z,98193.52
2019-02-02T01:05:16.516Z,98194.41
2019-02-02T01:07:44.505Z,98189.63
2019-02-02T01:10:16.627Z,98185.38
2019-02-02T01:12:44.712Z,98182.30
2019-02-02T01:15:12.750Z,98180.55
2019-02-02T01:17:40.790Z,98181.00
2019-02-02T01:20:09.546Z,98177.52
2019-02-02T01:22:37.602Z,98178.35
2019-02-02T01:25:05.988Z,98170.95
2019-02-02T01:27:34.016Z,98175.35
2019-02-02T01:30:02.028Z,98178.27
2019-02-02T01:32:30.071Z,98170.84
2019-02-02T01:34:58.015Z,98170.84
2019-02-02T01:37:26.059Z,98172.55
2019-02-02T01:39:54.155Z,98170.75
2019-02-02T01:42:22.154Z,98174.67
2019-02-02T01:44:50.221Z,98180.17
2019-02-02T01:47:18.221Z,98174.09
2019-02-02T01:49:46.215Z,98164.72
2019-02-02T01:52:14.287Z,98170.13
2019-02-02T01:54:42.285Z,98160.58
2019-02-02T01:57:10.299Z,98154.47
2019-02-02T01:59:38.325Z,98147.59
2019-02-02T02:02:06.375Z,98151.64
2019-02-02T02:04:34.386Z,98152.98
2019-02-02T02:07:02.699Z,98151.27
2019-02-02T02:09:30.785Z,98151.27
2019-02-02T02:11:58.870Z,98149.50
2019-02-02T02:14:26.886Z,98154.76
2019-02-02T02:16:54.908Z,98157.16
2019-02-02T02:19:22.946Z,98158.66
2019-02-02T02:21:50.958Z,98157.06
2019-02-02T02:24:18.942Z,98154.09
2019-02-02T02:26:46.951Z,98143.95
2019-02-02T02:29:15.034Z,98143.09
2019-02-02T02:31:43.072Z,98149.30
2019-02-02T02:34:11.100Z,98149.02
2019-02-02T02:36:39.166Z,98135.88
2019-02-02T02:39:09.108Z,98141.13
2019-02-02T02:41:37.155Z,98137.67
2019-02-02T02:44:05.177Z,98142.38
2019-02-02T02:46:33.253Z,98137.67
2019-02-02T02:49:01.255Z,98153.08
2019-02-02T02:51:29.283Z,98141.61
2019-02-02T02:53:57.304Z,98133.76
2019-02-02T02:56:25.347Z,98143.88
2019-02-02T02:58:53.449Z,98146.62
2019-02-02T03:01:21.465Z,98135.16
2019-02-02T03:03:49.608Z,98130.64
2019-02-02T03:06:17.614Z,98121.99
2019-02-02T03:08:45.786Z,98125.05
2019-02-02T03:11:13.855Z,98128.62
2019-02-02T03:13:41.846Z,98131.96
2019-02-02T03:16:09.894Z,98133.47
2019-02-02T03:18:37.971Z,98136.80
2019-02-02T03:21:05.932Z,98142.23
2019-02-02T03:23:33.940Z,98138.23
2019-02-02T03:26:01.932Z,98141.48
2019-02-02T03:28:29.953Z,98139.67
2019-02-02T03:30:57.929Z,98143.45
2019-02-02T03:33:25.986Z,98140.06
2019-02-02T03:35:54.059Z,98133.13
2019-02-02T03:38:22.093Z,98134.42
2019-02-02T03:40:50.023Z,98127.59
2019-02-02T03:43:18.063Z,98133.25
2019-02-02T03:45:46.087Z,98140.11
2019-02-02T03:48:14.083Z,98144.86
2019-02-02T03:50:42.059Z,98158.75
2019-02-02T03:53:10.049Z,98169.73
2019-02-02T03:55:38.131Z,98167.23
2019-02-02T03:58:06.171Z,98178.91
2019-02-02T04:00:34.191Z,98174.08
2019-02-02T04:03:02.271Z,98171.14
2019-02-02T04:05:30.430Z,98163.03
2019-02-02T04:07:58.439Z,98164.83
2019-02-02T04:10:26.452Z,98167.52
2019-02-02T04:12:54.426Z,98178.98
2019-02-02T04:15:22.441Z,98172.92
2019-02-02T04:17:50.487Z,98171.81
2019-02-02T04:20:20.070Z,98173.07
2019-02-02T04:22:48.130Z,98181.51
2019-02-02T04:25:16.570Z,98183.19
2019-02-02T04:27:44.609Z,98189.37
2019-02-02T04:30:15.718Z,98193.38
2019-02-02T04:32:43.786Z,98197.75
2019-02-02T04:35:11.788Z,98201.14
2019-02-02T04:37:40.036Z,98201.23
2019-02-02T04:40:08.640Z,98205.66
2019-02-02T04:42:36.675Z,98200.41
2019-02-02T04:45:05.154Z,98192.88
2019-02-02T04:47:33.265Z,98201.48
2019-02-02T04:50:01.348Z,98197.91
2019-02-02T04:52:29.367Z,98200.81
2019-02-02T04:54:57.327Z,98200.84
2019-02-02T04:57:25.447Z,98206.41
2019-02-02T04:59:53.430Z,98208.77
2019-02-02T05:02:21.625Z,98204.73
2019-02-02T05:04:49.693Z,98199.98
2019-02-02T05:07:17.772Z,98199.19
2019-02-02T05:09:45.791Z,98206.14
2019-02-02T05:12:13.937Z,98205.00
2019-02-02T05:14:42.003Z,98205.55
2019-02-02T05:17:10.035Z,98208.67
2019-02-02T05:19:38.076Z,98212.16
2019-02-02T05:22:06.032Z,98214.88
2019-02-02T05:24:34.047Z,98208.34
2019-02-02T05:27:02.146Z,98212.73
2019-02-02T05:29:40.822Z,98218.48
2019-02-02T05:32:00.339Z,98221.66
2019-02-02T05:34:28.372Z,98226.13
2019-02-02T05:36:56.454Z,98238.81
2019-02-02T05:39:24.534Z,98249.77
2019-02-02T05:41:52.544Z,98255.97
2019-02-02T05:44:20.570Z,98250.25
2019-02-02T05:46:48.560Z,98255.11
2019-02-02T05:49:16.703Z,98255.59
2019-02-02T05:51:44.712Z,98249.52
2019-02-02T05:54:12.698Z,98250.36
2019-02-02T05:56:40.772Z,98242.02
2019-02-02T05:59:08.741Z,98114.25
2019-02-02T06:01:36.967Z,98248.48
2019-02-02T06:04:05.035Z,98245.02
2019-02-02T06:06:33.045Z,98246.84
2019-02-02T06:09:01.134Z,98255.56
2019-02-02T06:11:29.239Z,98240.36
2019-02-02T06:13:57.350Z,98244.79
2019-02-02T06:16:25.331Z,98242.04
2019-02-02T06:18:53.440Z,98241.27
2019-02-02T06:21:21.503Z,98262.25
2019-02-02T06:23:49.522Z,98257.88
2019-02-02T06:26:17.644Z,98257.50
2019-02-02T06:28:45.764Z,98261.66
2019-02-02T06:31:13.912Z,98267.03
2019-02-02T06:33:42.009Z,98260.98
2019-02-02T06:36:10.021Z,98262.91
2019-02-02T06:38:38.133Z,98252.08
2019-02-02T06:41:06.166Z,98257.27
2019-02-02T06:43:34.191Z,98267.48
2019-02-02T06:46:02.256Z,98271.37
2019-02-02T06:48:30.272Z,98276.70
2019-02-02T06:50:58.360Z,98268.25
2019-02-02T06:53:26.404Z,98278.05
2019-02-02T06:55:54.462Z,98287.17
2019-02-02T06:58:22.678Z,98294.90
2019-02-02T07:00:50.718Z,98296.49
2019-02-02T07:03:18.806Z,98296.44
2019-02-02T07:05:46.878Z,98303.93
2019-02-02T07:08:14.893Z,98309.75
2019-02-02T07:10:42.980Z,98323.44
2019-02-02T07:13:10.982Z,98322.61
2019-02-02T07:15:39.051Z,98335.02
2019-02-02T07:18:07.135Z,98335.75
2019-02-02T07:20:35.430Z,98341.50
2019-02-02T07:23:03.469Z,98340.52
2019-02-02T07:25:31.445Z,98352.28
2019-02-02T07:27:59.602Z,98359.54
2019-02-02T07:30:29.471Z,98366.59
2019-02-02T07:32:57.434Z,98360.10
2019-02-02T07:35:25.410Z,98364.11
2019-02-02T07:37:53.421Z,98362.08
2019-02-02T07:40:21.479Z,98350.92
2019-02-02T07:42:49.523Z,98332.25
2019-02-02T07:45:19.777Z,98327.50
2019-02-02T07:47:47.828Z,98322.64
2019-02-02T07:50:16.026Z,98327.88
2019-02-02T07:52:44.077Z,98328.56
2019-02-02T07:55:12.999Z,98336.34
2019-02-02T07:57:41.017Z,98335.91
2019-02-02T08:00:40.383Z,98330.51
2019-02-02T08:02:59.055Z,98338.98
2019-02-02T08:05:27.182Z,98356.44
2019-02-02T08:07:55.301Z,98349.64
2019-02-02T08:10:23.370Z,98364.34
2019-02-02T08:12:51.363Z,98375.48
2019-02-02T08:15:21.942Z,98379.59
2019-02-02T08:17:50.044Z,98380.94
2019-02-02T08:20:18.137Z,98386.75
2019-02-02T08:22:46.216Z,98388.33
2019-02-02T08:25:14.557Z,98400.91
2019-02-02T08:27:42.645Z,98411.88
2019-02-02T08:30:16.813Z,98414.39
2019-02-02T08:32:45.255Z,98419.11
2019-02-02T08:35:13.269Z,98424.47
2019-02-02T08:37:41.371Z,98425.47
2019-02-02T08:40:10.969Z,98429.11
2019-02-02T08:42:38.990Z,98442.96
2019-02-02T08:45:07.482Z,98448.32
2019-02-02T08:47:35.651Z,98448.80
2019-02-02T08:50:03.779Z,98452.95
2019-02-02T08:52:31.849Z,98454.76
2019-02-02T08:55:00.057Z,98465.55
2019-02-02T08:57:28.756Z,98460.34
2019-02-02T08:59:59.749Z,98462.09
2019-02-02T09:02:26.581Z,98463.69
2019-02-02T09:04:54.664Z,98466.50
2019-02-02T09:07:22.800Z,98468.92
2019-02-02T09:09:50.834Z,98466.87
2019-02-02T09:12:18.982Z,98473.92
2019-02-02T09:14:47.321Z,98478.34
2019-02-02T09:17:15.423Z,98470.89
2019-02-02T09:19:43.673Z,98478.39
2019-02-02T09:22:12.208Z,98482.59
2019-02-02T09:24:40.269Z,98490.19
2019-02-02T09:27:08.288Z,98495.67
2019-02-02T09:29:36.396Z,98498.07
2019-02-02T09:32:04.614Z,98506.02
2019-02-02T09:34:32.705Z,98497.15
2019-02-02T09:37:00.975Z,98500.94
2019-02-02T09:39:28.947Z,98500.61
2019-02-02T09:41:56.989Z,98495.20
2019-02-02T09:44:25.105Z,98496.23
2019-02-02T09:46:53.187Z,98490.05
2019-02-02T09:49:21.403Z,98484.91
2019-02-02T09:51:49.712Z,98492.55
2019-02-02T09:54:26.438Z,98499.28
2019-02-02T09:56:48.002Z,98501.11
2019-02-02T09:59:16.118Z,98498.71
2019-02-02T10:01:44.272Z,98498.28
2019-02-02T10:04:12.364Z,98496.32
2019-02-02T10:06:40.844Z,98491.82
2019-02-02T10:09:09.531Z,98498.27
2019-02-02T10:11:37.625Z,98505.16
2019-02-02T10:14:05.697Z,98511.86
2019-02-02T10:16:34.164Z,98519.86
2019-02-02T10:19:02.343Z,98513.30
2019-02-02T10:21:30.406Z,98512.45
2019-02-02T10:23:59.338Z,98518.15
2019-02-02T10:26:27.310Z,98519.53
2019-02-02T10:28:55.362Z,98518.52
2019-02-02T10:31:23.468Z,98518.09
2019-02-02T10:33:51.539Z,98526.27
2019-02-02T10:36:20.153Z,98532.26
2019-02-02T10:38:49.469Z,98525.27
2019-02-02T10:41:17.496Z,98531.49
2019-02-02T10:43:45.803Z,98542.01
2019-02-02T10:46:13.894Z,98539.80
2019-02-02T10:48:42.137Z,98537.84
2019-02-02T10:51:10.173Z,98540.62
2019-02-02T10:53:43.179Z,98549.36
2019-02-02T10:56:13.717Z,98547.73
2019-02-02T10:58:42.144Z,98546.48
2019-02-02T11:01:10.353Z,98544.61
2019-02-02T11:03:38.359Z,98539.63
2019-02-02T11:06:06.646Z,98542.17
2019-02-02T11:08:34.700Z,98541.45
2019-02-02T11:11:02.999Z,98548.58
2019-02-02T11:13:31.398Z,98543.89
2019-02-02T11:15:59.898Z,98536.28
2019-02-02T11:18:28.073Z,98536.28
2019-02-02T11:20:56.233Z,98535.14
2019-02-02T11:23:24.309Z,98530.27
2019-02-02T11:25:52.595Z,98536.86
2019-02-02T11:28:20.636Z,98536.83
2019-02-02T11:30:48.874Z,98538.75
2019-02-02T11:33:17.093Z,98543.86
2019-02-02T11:35:45.239Z,98542.21
2019-02-02T11:38:13.450Z,98545.27
2019-02-02T11:40:41.609Z,98551.45
2019-02-02T11:43:09.679Z,98561.97
2019-02-02T11:45:38.092Z,98566.89
2019-02-02T11:48:06.329Z,98566.98
2019-02-02T11:50:34.545Z,98568.80
2019-02-02T11:53:02.646Z,98577.38
2019-02-02T11:55:30.790Z,98582.00
2019-02-02T11:57:58.942Z,98583.78
2019-02-02T12:00:44.979Z,98585.89
2019-02-02T12:03:13.413Z,98587.78
2019-02-02T12:05:41.548Z,98588.80
2019-02-02T12:08:09.708Z,98591.47
2019-02-02T12:10:37.898Z,98585.60
2019-02-02T12:13:06.182Z,98579.36
2019-02-02T12:15:34.455Z,98577.86
2019-02-02T12:18:02.807Z,98580.00
2019-02-02T12:20:33.135Z,98581.44
2019-02-02T12:23:01.103Z,98579.08
2019-02-02T12:25:29.563Z,98582.00
2019-02-02T12:27:57.642Z,98593.53
2019-02-02T12:30:34.126Z,98601.11
2019-02-02T12:33:03.267Z,98593.78
2019-02-02T12:35:32.396Z,98598.25
2019-02-02T12:38:00.531Z,98599.43
2019-02-02T12:40:29.566Z,98600.39
2019-02-02T12:42:57.704Z,98600.73
2019-02-02T12:45:32.387Z,98609.45
2019-02-02T12:48:00.540Z,98614.36
2019-02-02T12:50:28.667Z,98620.93
2019-02-02T12:52:56.956Z,98625.36
2019-02-02T12:55:26.114Z,98628.83
2019-02-02T12:57:54.287Z,98636.54
2019-02-02T13:00:22.581Z,98638.68
2019-02-02T13:02:50.605Z,98648.86
2019-02-02T13:05:19.521Z,98649.22
2019-02-02T13:07:47.809Z,98648.86
2019-02-02T13:10:24.253Z,98656.29
2019-02-02T13:12:50.903Z,98661.26
2019-02-02T13:15:19.450Z,98660.83
2019-02-02T13:17:47.557Z,98665.61
2019-02-02T13:20:15.742Z,98664.34
2019-02-02T13:22:44.291Z,98666.00
2019-02-02T13:25:14.502Z,98676.83
2019-02-02T13:27:42.583Z,98676.11
2019-02-02T13:30:14.060Z,98683.47
2019-02-02T13:32:49.345Z,98686.11
2019-02-02T13:35:13.382Z,98691.86
2019-02-02T13:37:41.526Z,98699.48
2019-02-02T13:40:12.506Z,98698.59
2019-02-02T13:42:40.738Z,98702.51
2019-02-02T13:45:09.302Z,98698.63
2019-02-02T13:47:37.615Z,98705.31
2019-02-02T13:50:07.565Z,98702.79
2019-02-02T13:52:35.945Z,98701.10
2019-02-02T13:55:04.501Z,98703.44
2019-02-02T13:57:53.403Z,98710.80
2019-02-02T14:00:24.019Z,98720.99
2019-02-02T14:03:02.436Z,98721.05
2019-02-02T14:05:22.116Z,98724.65
2019-02-02T14:07:50.243Z,98720.64
2019-02-02T14:10:20.565Z,98726.70
2019-02-02T14:12:49.069Z,98727.16
2019-02-02T14:15:17.247Z,98724.75
2019-02-02T14:17:45.508Z,98725.05
2019-02-02T14:20:13.983Z,98730.17
2019-02-02T14:22:42.597Z,98737.95
2019-02-02T14:25:11.066Z,98738.58
2019-02-02T14:27:39.242Z,98742.72
2019-02-02T14:30:11.234Z,98748.47
2019-02-02T14:32:39.406Z,98750.33
2019-02-02T14:35:08.529Z,98758.69
2019-02-02T14:37:36.664Z,98762.44
2019-02-02T14:40:05.849Z,98770.27
2019-02-02T14:42:34.151Z,98775.55
2019-02-02T14:45:02.398Z,98778.41
2019-02-02T14:47:30.476Z,98787.00
2019-02-02T14:49:58.866Z,98790.53
2019-02-02T14:52:27.161Z,98794.34
2019-02-02T14:54:55.657Z,98794.42
2019-02-02T14:57:23.714Z,98803.23
2019-02-02T14:59:51.957Z,98803.45
2019-02-02T15:02:20.247Z,98811.09
2019-02-02T15:04:48.523Z,98805.73
2019-02-02T15:07:16.819Z,98812.05
2019-02-02T15:09:45.025Z,98820.30
2019-02-02T15:12:13.351Z,98823.16
2019-02-02T15:14:41.663Z,98830.15
2019-02-02T15:17:10.153Z,98833.33
2019-02-02T15:19:38.584Z,98836.55
2019-02-02T15:22:06.741Z,98838.30
2019-02-02T15:24:35.195Z,98829.66
2019-02-02T15:27:03.599Z,98832.10
2019-02-02T15:29:31.892Z,98840.36
2019-02-02T15:32:00.131Z,98841.74
2019-02-02T15:34:28.640Z,98846.67
2019-02-02T15:36:56.817Z,98843.75
2019-02-02T15:39:25.027Z,98855.11
2019-02-02T15:41:53.396Z,98848.26
2019-02-02T15:44:21.510Z,98852.84
2019-02-02T15:46:49.739Z,98862.26
2019-02-02T15:49:20.447Z,98862.54
2019-02-02T15:51:47.800Z,98865.73
2019-02-02T15:54:16.678Z,98874.66
2019-02-02T15:56:45.005Z,98883.91
2019-02-02T15:59:13.438Z,98894.55
2019-02-02T16:01:41.777Z,98903.82
2019-02-02T16:04:10.037Z,98906.38
2019-02-02T16:06:38.840Z,98906.70
2019-02-02T16:09:09.653Z,98908.94
2019-02-02T16:11:37.554Z,98909.69
2019-02-02T16:14:05.894Z,98904.44
2019-02-02T16:16:34.154Z,98915.31
2019-02-02T16:19:03.252Z,98928.23
2019-02-02T16:21:31.644Z,98928.58
2019-02-02T16:24:00.277Z,98934.75
2019-02-02T16:26:29.590Z,98945.84
2019-02-02T16:28:58.608Z,98953.41
2019-02-02T16:31:27.116Z,98963.52
2019-02-02T16:34:02.214Z,98967.16
2019-02-02T16:36:25.435Z,98970.61
2019-02-02T16:38:53.613Z,98978.55
2019-02-02T16:41:21.779Z,98981.66
2019-02-02T16:43:50.218Z,98981.63
2019-02-02T16:46:19.139Z,98991.45
2019-02-02T16:48:47.684Z,99001.01
2019-02-02T16:51:16.074Z,99010.16
2019-02-02T16:53:44.499Z,99021.64
2019-02-02T16:56:13.435Z,99030.48
2019-02-02T16:58:42.248Z,99031.25
2019-02-02T17:01:11.384Z,99035.09
2019-02-02T17:03:39.932Z,99037.35
2019-02-02T17:06:08.918Z,99039.29
2019-02-02T17:08:37.503Z,99053.83
2019-02-02T17:11:06.498Z,99053.52
2019-02-02T17:13:34.930Z,99060.05
2019-02-02T17:16:03.196Z,99060.03
2019-02-02T17:18:31.764Z,99062.60
2019-02-02T17:20:59.954Z,99065.09
2019-02-02T17:23:28.078Z,99073.09
2019-02-02T17:25:56.353Z,99079.13
2019-02-02T17:28:24.551Z,99079.68
2019-02-02T17:30:53.880Z,99091.34
2019-02-02T17:33:22.035Z,99101.83
2019-02-02T17:35:50.502Z,99109.84
2019-02-02T17:38:18.855Z,99114.30
2019-02-02T17:40:47.797Z,99116.36
2019-02-02T17:43:17.056Z,99117.55
2019-02-02T17:45:47.222Z,99125.58
2019-02-02T17:48:15.495Z,99125.36
2019-02-02T17:50:44.310Z,99129.46
2019-02-02T17:53:14.772Z,99132.66
2019-02-02T17:55:43.682Z,99128.30
2019-02-02T17:58:13.448Z,99128.03
2019-02-02T18:00:57.749Z,99137.34
2019-02-02T18:03:26.054Z,99137.06
2019-02-02T18:05:54.844Z,99145.77
2019-02-02T18:08:23.573Z,99148.41
2019-02-02T18:10:52.235Z,99158.08
2019-02-02T18:13:20.884Z,99155.45
2019-02-02T18:15:49.450Z,99161.94
2019-02-02T18:18:18.025Z,99166.91
2019-02-02T18:20:46.624Z,99173.39
2019-02-02T18:23:18.110Z,99172.65
2019-02-02T18:25:45.587Z,99173.27
2019-02-02T18:28:14.022Z,99179.34
2019-02-02T18:30:42.663Z,99184.03
2019-02-02T18:33:11.118Z,99183.69
2019-02-02T18:38:13.760Z,99182.41
2019-02-02T18:40:42.268Z,99181.69
2019-02-02T18:43:10.438Z,99189.75
2019-02-02T18:45:39.181Z,99192.94
2019-02-02T18:48:07.937Z,99201.25
2019-02-02T18:50:36.462Z,99196.97
2019-02-02T18:53:04.974Z,99206.33
2019-02-02T18:55:57.884Z,99203.09
2019-02-02T18:58:26.519Z,99213.84
2019-02-02T19:00:54.818Z,99209.73
2019-02-02T19:03:23.123Z,99216.95
2019-02-02T19:05:51.487Z,99226.44
2019-02-02T19:08:20.004Z,99226.48
2019-02-02T19:10:48.316Z,99230.76
2019-02-02T19:13:16.967Z,99235.81
2019-02-02T19:15:45.172Z,99239.02
2019-02-02T19:18:13.666Z,99242.05
2019-02-02T19:20:41.946Z,99246.12
2019-02-02T19:23:10.562Z,99253.10
2019-02-02T19:25:39.895Z,99259.43
2019-02-02T19:28:11.331Z,99264.03
2019-02-02T19:30:41.278Z,99266.79
2019-02-02T19:33:12.656Z,99267.03
2019-02-02T19:35:41.628Z,99276.87
2019-02-02T19:38:11.601Z,99277.97
2019-02-02T19:40:40.698Z,99278.42
2019-02-02T19:43:09.965Z,99282.58
2019-02-02T19:45:40.138Z,99290.09
2019-02-02T19:48:09.762Z,99295.34
2019-02-02T19:50:39.035Z,99286.13
2019-02-02T19:53:09.270Z,99295.80
2019-02-02T19:55:39.311Z,99286.28
2019-02-02T19:58:10.821Z,99301.69
2019-02-02T20:00:40.261Z,99300.99
2019-02-02T20:03:11.363Z,99304.27
2019-02-02T20:05:41.093Z,99305.81
2019-02-02T20:08:17.229Z,99319.70
2019-02-02T20:10:46.331Z,99316.59
2019-02-02T20:13:15.236Z,99321.28
2019-02-02T20:15:44.599Z,99331.27
2019-02-02T20:18:13.782Z,99330.91
2019-02-02T20:20:43.779Z,99330.72
2019-02-02T20:23:12.757Z,99341.80
2019-02-02T20:25:42.413Z,99329.20
2019-02-02T20:28:11.008Z,99340.59
2019-02-02T20:30:42.922Z,99343.06
2019-02-02T20:33:12.020Z,99343.77
2019-02-02T20:35:42.394Z,99350.00
2019-02-02T20:38:11.126Z,99353.91
2019-02-02T20:40:40.831Z,99362.98
2019-02-02T20:43:11.006Z,99364.31
2019-02-02T20:45:40.737Z,99371.50
2019-02-02T20:48:10.320Z,99370.54
2019-02-02T20:50:39.798Z,99376.73
2019-02-02T20:53:09.180Z,99380.32
2019-02-02T20:55:43.505Z,99392.48
2019-02-02T20:58:13.081Z,99396.70
2019-02-02T21:00:42.503Z,99396.98
2019-02-02T21:03:14.158Z,99404.80
2019-02-02T21:05:51.939Z,99415.44
2019-02-02T21:08:15.178Z,99421.62
2019-02-02T21:10:44.849Z,99424.70
2019-02-02T21:13:14.284Z,99426.42
2019-02-02T21:15:43.840Z,99436.59
2019-02-02T21:18:13.450Z,99440.14
2019-02-02T21:20:44.542Z,99450.19
2019-02-02T21:23:14.040Z,99463.02
2019-02-02T21:25:44.646Z,99470.89
2019-02-02T21:28:14.202Z,99477.97
2019-02-02T21:30:46.607Z,99481.05
2019-02-02T21:33:15.643Z,99488.80
2019-02-02T21:35:45.360Z,99480.60
2019-02-02T21:38:14.911Z,99481.27
2019-02-02T21:40:43.573Z,99486.12
2019-02-02T21:43:12.720Z,99490.94
2019-02-02T21:45:41.939Z,99497.56
2019-02-02T21:48:11.950Z,99510.78
2019-02-02T21:50:40.897Z,99520.08
2019-02-02T21:53:10.235Z,99518.69
2019-02-02T21:55:38.902Z,99530.50
2019-02-02T21:58:09.250Z,99528.25
2019-02-02T22:00:45.536Z,99532.23
2019-02-02T22:03:14.775Z,99541.38
2019-02-02T22:05:43.987Z,99549.89
2019-02-02T22:08:13.039Z,99558.24
2019-02-02T22:10:41.759Z,99559.98
2019-02-02T22:13:10.529Z,99557.89
2019-02-02T22:15:41.043Z,99562.16
2019-02-02T22:18:09.622Z,99559.63
2019-02-02T22:20:40.990Z,99568.43
2019-02-02T22:23:10.897Z,99566.45
2019-02-02T22:25:39.215Z,99576.47
2019-02-02T22:28:08.462Z,99583.30
2019-02-02T22:30:40.110Z,99593.39
2019-02-02T22:33:08.727Z,99592.52
2019-02-02T22:35:37.144Z,99596.31
2019-02-02T22:38:06.155Z,99596.27
2019-02-02T22:40:35.526Z,99603.52
2019-02-02T22:43:04.494Z,99609.52
2019-02-02T22:45:33.744Z,99619.73
2019-02-02T22:48:02.354Z,99628.09
2019-02-02T22:50:31.278Z,99636.86
2019-02-02T22:52:59.716Z,99644.82
2019-02-02T22:55:29.687Z,99655.80
2019-02-02T22:58:00.384Z,99660.20
2019-02-02T23:00:55.617Z,99656.65
2019-02-02T23:03:27.732Z,99655.67
2019-02-02T23:06:39.360Z,99663.16
2019-02-02T23:09:56.033Z,99665.00
2019-02-02T23:12:32.253Z,99668.33
2019-02-02T23:15:53.715Z,99678.48
2019-02-02T23:18:22.088Z,99679.94
2019-02-02T23:20:50.581Z,99682.09
2019-02-02T23:23:18.981Z,99676.90
2019-02-02T23:25:47.159Z,99682.94
2019-02-02T23:28:15.480Z,99691.31
2019-02-02T23:30:43.788Z,99699.98
2019-02-02T23:33:11.970Z,99702.70
2019-02-02T23:35:40.497Z,99699.22
2019-02-02T23:38:08.708Z,99704.52
2019-02-02T23:40:36.804Z,99706.33
2019-02-02T23:43:11.364Z,99705.34
2019-02-02T23:45:35.250Z,99711.14
2019-02-02T23:48:03.562Z,99707.59
2019-02-02T23:50:31.642Z,99708.42
2019-02-02T23:53:00.126Z,99713.78
2019-02-02T23:55:28.486Z,99712.06
2019-02-02T23:57:56.567Z,99712.02
